Current | Forecast
Updated: 2:00 PM JST on February 21, 2018
Observed at Chitose AB, Japan
Temperature 23°F
Windchill 12°F
Humidity 54%
Dew Point 9°F
Wind North at 10 mph
Pressure 29.89 in (Steady)
Conditions Mostly Cloudy
Visibility 6.2 miles
UV 1 out of 16
Clouds (FEW) : 3000 ft
Mostly Cloudy (BKN) : 5000 ft
Yesterday's Maximum 28°F
Yesterday's Minimum 3°F approx.
Yesterday's Heating Degree Days 49 approx.
Sunrise6:21 AM JST
Sunset5:11 PM JST
Moon Rise9:10 AM JST
Moon Set10:42 PM JST
Moon PhaseMoon Phase
Waxing Crescent
Raw METARMETAR RJCC 210500Z 36009KT 9999 FEW030 BKN050 M05/M13 Q1012 RMK 1CU030 6CU050 A2990


Monday
. High: 62° F.
Tuesday
. High: 62° F.
Wednesday
. High: 59° F.
Thursday
. High: 59° F.
Friday
. High: 60° F.
Saturday
. High: 59° F.
Sunday
. High: 53° F.
Monday
. High: 53° F.

Units: English | Metric

Find the Weather for any City, State or Zipcode, or Country:

U.S. State List | Severe Weather | Tropical Storms | Ski Conditions
United States | Canada | Central America | South America | Asia | Europe | Australia | Africa | Islands

Weather Underground

© Copyright 2018
The Weather Company, LLC